• Join FlightAware (Why Join?)
  • Login
  • US Flag 
07:54AM EDT


 

Airport Tracker/Info


-or-


 

Live Flight TrackerFlight Track Log ✈ SWA2339 ✈ 14-Apr-2013 ✈ KBOS - KBWI

Flight Track Log - Related Links

Times and Time Zones

All times are in EDT time to prevent confusion due to time zone crossing. See the SWA2339 flight status page for this flight to view local times or setup timezone preferences in your user account.

Time Position Orientation Groundspeed Altitude Reporting Facility
EDT Latitude Longitude Course Direction KTS MPH feet Rate Location/Type
06:25AM 42.3500 -70.9833 124° Southeast 174 200 700  Level KA90
06:26AM 42.3333 -70.9500 124° Southeast 181 208 2,200 2,100 Climbing KA90
06:27AM 42.3167 -70.8667 105° East 252 290 4,500 2,220 Climbing KA90
06:27AM 42.3264 -70.8253 72° East 275 316 5,600 2,880 Climbing Boston Center
06:28AM 42.2936 -70.7308 115° Southeast 281 323 9,000 3,000 Climbing Boston Center
06:29AM 42.2147 -70.7358 183° South 240 276 11,600 2,880 Climbing Boston Center
06:30AM 42.1764 -70.8319 242° Southwest 208 239 14,700 3,360 Climbing Boston Center
06:31AM 42.1594 -70.9642 260° West 291 335 18,500 3,120 Climbing Boston Center
06:32AM 42.1483 -71.0792 263° West 324 373 21,200 2,820 Climbing Boston Center
06:33AM 42.1353 -71.2056 262° West 340 391 24,200 2,700 Climbing Boston Center
06:34AM 42.1178 -71.3317 259° West 345 397 26,600 2,280 Climbing Boston Center
06:35AM 42.1022 -71.4636 261° West 355 409 28,900 2,100 Climbing Boston Center
06:36AM 42.0825 -71.5897 258° West 355 409 30,800 1,920 Climbing Boston Center
06:37AM 42.0647 -71.7242 260° West 355 409 32,700 1,560 Climbing Boston Center
06:38AM 42.0508 -71.8558 262° West 355 409 34,000 600 Climbing Boston Center
06:39AM 42.0367 -71.9622 260° West 360 414 34,000 660 Level Boston Center
06:40AM 42.0144 -72.1300 260° West 376 433 35,400 960 Climbing Boston Center
06:41AM 41.9958 -72.2697 260° West 381 438 36,000 300 Climbing Boston Center
06:42AM 41.9772 -72.4067 260° West 381 438 36,000  Level Boston Center
06:43AM 41.9606 -72.5433 261° West 381 438 36,000  Level Boston Center
06:44AM 41.9417 -72.6772 259° West 376 433 36,000  Level Boston Center
06:45AM 41.8725 -72.7858 229° Southwest 362 417 36,000  Level Boston Center
06:46AM 41.7931 -72.8911 225° Southwest 368 423 36,000  Level Boston Center
06:47AM 41.7197 -72.9908 225° Southwest 386 444 36,000  Level Boston Center
06:48AM 41.6483 -73.0928 227° Southwest 386 444 36,000  Level Boston Center
06:49AM 41.5747 -73.1922 225° Southwest 386 444 36,000  Level Boston Center
06:50AM 41.4969 -73.2964 225° Southwest 375 432 36,000  Level Boston Center
06:51AM 41.4231 -73.3950 225° Southwest 375 432 36,000 -600 Level Boston Center
06:54AM 41.2564 -73.6247 226° Southwest 394 453 34,000 -960 Descending New York Center
06:55AM 41.1933 -73.7325 232° Southwest 387 445 33,000 -960 Descending New York Center
06:56AM 41.1281 -73.8397 231° Southwest 382 440 32,100 -540 Descending New York Center
06:57AM 41.0647 -73.9497 233° Southwest 382 440 32,000 -60 Descending New York Center
06:58AM 41.0014 -74.0567 232° Southwest 382 440 32,000 -540 Level New York Center
06:59AM 40.9378 -74.1633 232° Southwest 382 440 31,000 -1,740 Descending New York Center
07:00AM 40.8658 -74.2750 230° Southwest 377 434 28,600 -2,280 Descending New York Center
07:01AM 40.8044 -74.3789 232° Southwest 372 428 26,400 -1,320 Descending New York Center
07:02AM 40.7453 -74.4742 231° Southwest 360 414 26,000 -240 Descending New York Center
07:03AM 40.6881 -74.5669 231° Southwest 350 403 26,000  Level New York Center
07:04AM 40.6408 -74.6711 239° Southwest 344 396 26,000  Level New York Center
07:05AM 40.6064 -74.7703 245° Southwest 332 382 26,000 -60 Level New York Center
07:06AM 40.5672 -74.8800 245° Southwest 332 382 25,900 -600 Descending New York Center
07:07AM 40.5261 -74.9811 242° Southwest 332 382 24,900 -1,020 Descending New York Center
07:08AM 40.4889 -75.0853 245° Southwest 332 382 23,900 -1,020 Descending New York Center
07:09AM 40.4253 -75.1714 226° Southwest 327 376 22,900 -1,020 Descending New York Center
07:10AM 40.3517 -75.2483 219° Southwest 327 376 21,900 -1,020 Descending New York Center
07:11AM 40.2800 -75.3200 217° Southwest 332 382 20,900 -1,080 Descending New York Center
07:12AM 40.2064 -75.3939 217° Southwest 337 388 19,800 -1,080 Descending New York Center
07:13AM 40.1219 -75.4750 216° Southwest 332 382 18,800 -900 Descending New York Center
07:14AM 40.0567 -75.5386 217° Southwest 332 382 18,000 -840 Descending New York Center
07:15AM 39.9767 -75.6144 216° Southwest 332 382 17,200 -900 Descending New York Center
07:16AM 39.9156 -75.6806 220° Southwest 332 382 16,200 -600 Descending New York Center
07:17AM 39.8636 -75.7742 234° Southwest 313 360 16,000 -120 Descending New York Center
07:18AM 39.8203 -75.8603 237° Southwest 293 337 16,000 -420 Level New York Center
07:19AM 39.7725 -75.9486 235° Southwest 293 337 15,200 -1,500 Descending New York Center
07:20AM 39.7000 -76.1000 238° Southwest 295 339 12,200 -1,440 Descending Potomac TRACON
07:22AM 39.6206 -76.2059 226° Southwest  Level FlightAware Approximate
07:22AM 39.5667 -76.2333 226° Southwest 319 367 10,000  Level Potomac TRACON
07:23AM 39.5000 -76.2833 210° Southwest 313 360 10,000 -600 Level Potomac TRACON
07:24AM 39.4333 -76.3333 210° Southwest 286 329 9,000 -1,260 Descending Potomac TRACON
07:25AM 39.3667 -76.3667 201° Southwest 272 313 7,800 -1,620 Descending Potomac TRACON
07:26AM 39.3000 -76.4000 201° Southwest 263 303 6,000 -1,920 Descending Potomac TRACON
07:27AM 39.2500 -76.4500 218° Southwest 259 298 4,200 -1,980 Descending Potomac TRACON
07:28AM 39.1833 -76.5000 210° Southwest 257 296 2,100 -1,140 Descending Potomac TRACON
07:29AM 39.1333 -76.5500 218° Southwest 212 244 2,000 -360 Descending Potomac TRACON
07:30AM 39.1167 -76.6000 247° West 163 188 1,500 -600 Descending Potomac TRACON
07:31AM 39.1333 -76.6333 303° West 130 150 900 -600 Descending Potomac TRACON